createdAt,value
2022-11-30T00:00:33.368Z,101315.16
2022-11-30T00:03:00.222Z,101311.00
2022-11-30T00:05:27.338Z,101308.97
2022-11-30T00:07:54.605Z,101307.94
2022-11-30T00:10:22.384Z,101305.88
2022-11-30T00:12:49.741Z,101304.84
2022-11-30T00:15:17.469Z,101305.66
2022-11-30T00:17:44.847Z,101309.28
2022-11-30T00:20:13.474Z,101305.16
2022-11-30T00:22:40.390Z,101303.09
2022-11-30T00:25:07.940Z,101304.47
2022-11-30T00:27:35.120Z,101304.16
2022-11-30T00:30:01.855Z,101313.91
2022-11-30T00:32:28.838Z,101313.75
2022-11-30T00:34:55.670Z,101305.56
2022-11-30T00:37:22.196Z,101310.06
2022-11-30T00:39:49.026Z,101317.78
2022-11-30T00:42:15.559Z,101317.75
2022-11-30T00:44:42.109Z,101316.88
2022-11-30T00:47:08.811Z,101309.00
2022-11-30T00:49:35.400Z,101318.63
2022-11-30T00:52:02.340Z,101316.59
2022-11-30T00:54:28.944Z,101321.75
2022-11-30T00:56:55.513Z,101310.25
2022-11-30T00:59:22.067Z,101317.06
2022-11-30T01:01:49.023Z,101316.59
2022-11-30T01:04:16.094Z,101317.25
2022-11-30T01:06:43.595Z,101319.88
2022-11-30T01:09:10.239Z,101314.88
2022-11-30T01:11:36.769Z,101309.69
2022-11-30T01:14:03.354Z,101310.72
2022-11-30T01:16:32.654Z,101324.13
2022-11-30T01:19:00.172Z,101318.13
2022-11-30T01:21:28.513Z,101326.88
2022-11-30T01:23:55.560Z,101325.19
2022-11-30T01:26:22.980Z,101328.09
2022-11-30T01:28:51.825Z,101332.72
2022-11-30T01:31:19.190Z,101335.81
2022-11-30T01:33:50.828Z,101338.53
2022-11-30T01:36:22.848Z,101345.97
2022-11-30T01:38:53.337Z,101342.34
2022-11-30T01:41:32.525Z,101345.09
2022-11-30T01:44:26.287Z,101349.91
2022-11-30T01:46:56.156Z,101342.00
2022-11-30T01:49:54.280Z,101348.38
2022-11-30T01:52:25.247Z,101342.00
2022-11-30T01:54:57.374Z,101341.66
2022-11-30T01:57:34.320Z,101348.84
2022-11-30T02:00:03.873Z,101359.00
2022-11-30T02:02:44.974Z,101362.97
2022-11-30T02:05:12.872Z,101359.16
2022-11-30T02:07:40.345Z,101361.41
2022-11-30T02:10:07.479Z,101356.25
2022-11-30T02:12:44.505Z,101362.59
2022-11-30T02:15:21.285Z,101374.28
2022-11-30T02:18:05.752Z,101359.00
2022-11-30T02:20:48.942Z,101351.81
2022-11-30T02:24:00.505Z,101370.69
2022-11-30T02:26:42.864Z,101356.44
2022-11-30T02:29:28.384Z,101359.78
2022-11-30T02:32:03.979Z,101352.59
2022-11-30T02:34:34.006Z,101351.75
2022-11-30T02:37:02.020Z,101352.25
2022-11-30T02:39:28.590Z,101344.53
2022-11-30T02:41:55.170Z,101343.69
2022-11-30T02:44:22.886Z,101345.56
2022-11-30T02:46:50.978Z,101348.19
2022-11-30T02:49:30.455Z,101351.28
2022-11-30T02:51:58.570Z,101342.34
2022-11-30T02:54:25.621Z,101339.94
2022-11-30T02:56:52.180Z,101341.16
2022-11-30T02:59:19.391Z,101346.47
2022-11-30T03:01:46.122Z,101344.53
2022-11-30T03:04:12.742Z,101346.06
2022-11-30T03:06:39.702Z,101348.00
2022-11-30T03:09:06.253Z,101348.19
2022-11-30T03:11:33.809Z,101339.97
2022-11-30T03:14:00.430Z,101338.41
2022-11-30T03:16:27.047Z,101337.66
2022-11-30T03:18:53.853Z,101341.25
2022-11-30T03:21:20.454Z,101346.41
2022-11-30T03:23:47.024Z,101345.06
2022-11-30T03:26:13.583Z,101345.22
2022-11-30T03:28:43.102Z,101348.28
2022-11-30T03:31:13.779Z,101347.09
2022-11-30T03:33:41.624Z,101347.47
2022-11-30T03:36:10.900Z,101348.00
2022-11-30T03:38:37.776Z,101344.41
2022-11-30T03:41:11.938Z,101340.97
2022-11-30T03:43:38.751Z,101354.19
2022-11-30T03:46:05.489Z,101357.97
2022-11-30T03:48:32.366Z,101353.34
2022-11-30T03:50:58.945Z,101357.81
2022-11-30T03:53:25.888Z,101362.25
2022-11-30T03:55:54.955Z,101362.06
2022-11-30T03:58:23.296Z,101362.56
2022-11-30T04:00:50.466Z,101362.88
2022-11-30T04:03:17.135Z,101367.31
2022-11-30T04:05:43.715Z,101369.22
2022-11-30T04:08:10.250Z,101369.69
2022-11-30T04:10:37.100Z,101358.94
2022-11-30T04:13:03.662Z,101361.16
2022-11-30T04:15:30.526Z,101362.41
2022-11-30T04:17:57.087Z,101372.69
2022-11-30T04:20:23.668Z,101366.00
2022-11-30T04:22:50.367Z,101365.13
2022-11-30T04:25:17.015Z,101366.28
2022-11-30T04:27:47.050Z,101369.41
2022-11-30T04:30:14.403Z,101368.88
2022-11-30T04:32:40.946Z,101371.47
2022-11-30T04:35:08.281Z,101366.00
2022-11-30T04:37:34.880Z,101364.47
2022-11-30T04:40:01.585Z,101366.00
2022-11-30T04:42:28.434Z,101367.72
2022-11-30T04:44:54.999Z,101373.56
2022-11-30T04:47:21.558Z,101367.72
2022-11-30T04:49:48.170Z,101374.22
2022-11-30T04:52:15.867Z,101374.44
2022-11-30T04:54:42.921Z,101375.66
2022-11-30T04:57:09.483Z,101373.09
2022-11-30T04:59:37.011Z,101381.63
2022-11-30T05:02:03.737Z,101378.41
2022-11-30T05:04:30.580Z,101385.91
2022-11-30T05:06:57.422Z,101383.31
2022-11-30T05:09:24.717Z,101387.97
2022-11-30T05:11:51.748Z,101391.06
2022-11-30T05:14:18.345Z,101382.81
2022-11-30T05:16:48.151Z,101387.44
2022-11-30T05:19:14.980Z,101390.56
2022-11-30T05:21:45.575Z,101389.19
2022-11-30T05:24:12.852Z,101395.75
2022-11-30T05:26:39.516Z,101391.53
2022-11-30T05:29:06.792Z,101386.72
2022-11-30T05:31:33.691Z,101398.56
2022-11-30T05:34:00.249Z,101396.91
2022-11-30T05:36:26.816Z,101395.16
2022-11-30T05:38:53.378Z,101404.28
2022-11-30T05:41:19.874Z,101396.91
2022-11-30T05:43:46.798Z,101401.69
2022-11-30T05:46:13.661Z,101397.00
2022-11-30T05:48:40.556Z,101403.84
2022-11-30T05:51:17.753Z,101399.38
2022-11-30T05:53:45.578Z,101399.41
2022-11-30T05:56:17.342Z,101406.81
2022-11-30T05:58:44.792Z,101401.31
2022-11-30T06:01:22.614Z,101403.72
2022-11-30T06:03:49.615Z,101399.94
2022-11-30T06:06:16.195Z,101407.47
2022-11-30T06:08:44.724Z,101407.81
2022-11-30T06:11:11.460Z,101415.69
2022-11-30T06:13:39.847Z,101416.09
2022-11-30T06:16:07.310Z,101413.28
2022-11-30T06:18:34.729Z,101410.22
2022-11-30T06:21:08.103Z,101409.16
2022-11-30T06:23:34.790Z,101421.88
2022-11-30T06:26:11.753Z,101421.13
2022-11-30T06:28:40.585Z,101416.34
2022-11-30T06:31:08.931Z,101413.47
2022-11-30T06:33:35.782Z,101411.25
2022-11-30T06:36:03.504Z,101409.56
2022-11-30T06:38:30.425Z,101411.97
2022-11-30T06:41:07.652Z,101412.44
2022-11-30T06:43:38.560Z,101410.72
2022-11-30T06:46:07.038Z,101417.00
2022-11-30T06:48:34.744Z,101420.00
2022-11-30T06:51:04.455Z,101420.22
2022-11-30T06:53:31.757Z,101423.75
2022-11-30T06:55:58.334Z,101419.50
2022-11-30T06:58:24.921Z,101421.53
2022-11-30T07:00:51.448Z,101422.75
2022-11-30T07:03:18.093Z,101422.91
2022-11-30T07:05:46.139Z,101412.31
2022-11-30T07:08:14.912Z,101426.56
2022-11-30T07:10:43.236Z,101422.63
2022-11-30T07:13:11.935Z,101428.72
2022-11-30T07:15:42.320Z,101429.75
2022-11-30T07:18:09.856Z,101431.59
2022-11-30T07:20:37.965Z,101428.84
2022-11-30T07:23:23.844Z,101427.88
2022-11-30T07:26:08.094Z,101441.41
2022-11-30T07:28:50.191Z,101437.41
2022-11-30T07:31:31.626Z,101440.69
2022-11-30T07:34:02.645Z,101438.84
2022-11-30T07:36:31.453Z,101435.69
2022-11-30T07:38:58.273Z,101440.56
2022-11-30T07:41:25.540Z,101449.44
2022-11-30T07:43:52.182Z,101447.38
2022-11-30T07:46:19.125Z,101449.75
2022-11-30T07:48:46.472Z,101446.81
2022-11-30T07:51:18.935Z,101451.72
2022-11-30T07:53:45.752Z,101457.81
2022-11-30T07:56:14.766Z,101470.38
2022-11-30T07:58:42.207Z,101466.75
2022-11-30T08:01:14.777Z,101467.81
2022-11-30T08:03:41.913Z,101462.31
2022-11-30T08:06:11.511Z,101463.91
2022-11-30T08:08:41.112Z,101469.94
2022-11-30T08:11:10.318Z,101468.03
2022-11-30T08:13:36.974Z,101467.63
2022-11-30T08:16:08.469Z,101477.94
2022-11-30T08:18:35.813Z,101471.41
2022-11-30T08:21:04.687Z,101473.09
2022-11-30T08:23:34.111Z,101481.69
2022-11-30T08:26:06.644Z,101487.53
2022-11-30T08:28:35.972Z,101487.34
2022-11-30T08:31:05.373Z,101493.91
2022-11-30T08:33:32.797Z,101485.09
2022-11-30T08:36:16.169Z,101494.53
2022-11-30T08:38:44.507Z,101486.44
2022-11-30T08:41:15.043Z,101488.88
2022-11-30T08:43:42.197Z,101496.47
2022-11-30T08:54:31.399Z,101511.22
2022-11-30T08:56:59.076Z,101511.56
2022-11-30T08:59:25.915Z,101517.47
2022-11-30T09:01:52.429Z,101518.53
2022-11-30T09:04:19.003Z,101509.16
2022-11-30T09:06:45.570Z,101509.31
2022-11-30T09:09:12.128Z,101513.75
2022-11-30T09:11:38.741Z,101509.47
2022-11-30T09:14:05.465Z,101520.63
2022-11-30T09:16:32.098Z,101518.88
2022-11-30T09:18:58.704Z,101519.78
2022-11-30T09:21:26.896Z,101527.66
2022-11-30T09:23:56.155Z,101526.66
2022-11-30T09:26:25.058Z,101526.00
2022-11-30T09:28:52.856Z,101520.03
2022-11-30T09:31:24.720Z,101525.41
2022-11-30T09:33:52.252Z,101521.13
2022-11-30T09:36:21.974Z,101524.97
2022-11-30T09:38:48.739Z,101523.91
2022-11-30T09:41:45.935Z,101525.44
2022-11-30T09:44:28.610Z,101528.00
2022-11-30T09:47:01.549Z,101526.66
2022-11-30T09:49:44.134Z,101517.06
2022-11-30T09:52:18.186Z,101520.13
2022-11-30T09:54:47.855Z,101524.31
2022-11-30T09:57:44.983Z,101516.75
2022-11-30T10:00:21.642Z,101522.88
2022-11-30T10:02:53.834Z,101521.50
2022-11-30T10:05:58.276Z,101512.19
2022-11-30T10:08:53.164Z,101513.44
2022-11-30T10:11:50.805Z,101509.84
2022-11-30T10:14:26.059Z,101516.66
2022-11-30T10:16:55.540Z,101516.31
2022-11-30T10:19:46.853Z,101513.16
2022-11-30T10:22:31.196Z,101513.34
2022-11-30T10:25:17.134Z,101520.66
2022-11-30T10:28:17.774Z,101521.44
2022-11-30T10:30:48.913Z,101508.28
2022-11-30T10:33:19.014Z,101506.41
2022-11-30T10:36:00.475Z,101504.69
2022-11-30T10:38:36.625Z,101521.59
2022-11-30T10:41:20.351Z,101508.91
2022-11-30T10:43:57.180Z,101512.78
2022-11-30T10:46:30.890Z,101513.03
2022-11-30T10:49:12.580Z,101515.13
2022-11-30T10:51:42.805Z,101510.28
2022-11-30T10:54:18.984Z,101501.28
2022-11-30T10:56:46.553Z,101503.66
2022-11-30T10:59:40.526Z,101497.31
2022-11-30T11:02:35.497Z,101507.22
2022-11-30T11:05:09.485Z,101502.03
2022-11-30T11:08:06.562Z,101501.09
2022-11-30T11:10:37.161Z,101507.53
2022-11-30T11:13:05.234Z,101505.50
2022-11-30T11:15:34.044Z,101505.06
2022-11-30T11:18:16.030Z,101504.97
2022-11-30T11:20:43.513Z,101508.56
2022-11-30T11:23:22.860Z,101508.06
2022-11-30T11:25:53.152Z,101503.97
2022-11-30T11:28:24.298Z,101506.53
2022-11-30T11:30:55.950Z,101501.03
2022-11-30T11:33:28.208Z,101509.25
2022-11-30T11:36:16.779Z,101509.28
2022-11-30T11:38:48.285Z,101510.63
2022-11-30T11:41:20.836Z,101514.22
2022-11-30T11:44:01.584Z,101513.19
2022-11-30T11:46:30.030Z,101506.16
2022-11-30T11:49:01.369Z,101515.97
2022-11-30T11:51:39.728Z,101511.16
2022-11-30T11:54:30.642Z,101514.97
2022-11-30T11:56:58.710Z,101515.06
2022-11-30T11:59:43.972Z,101515.59
2022-11-30T12:02:32.047Z,101513.56
2022-11-30T12:05:24.493Z,101514.75
2022-11-30T12:08:15.954Z,101516.88
2022-11-30T12:11:00.811Z,101519.47
2022-11-30T12:13:38.398Z,101522.56
2022-11-30T12:16:10.395Z,101523.00
2022-11-30T12:19:00.122Z,101517.69
2022-11-30T12:21:32.967Z,101520.53
2022-11-30T12:24:19.770Z,101519.72
2022-11-30T12:26:53.517Z,101525.41
2022-11-30T12:29:39.105Z,101516.31
2022-11-30T12:32:31.783Z,101521.97
2022-11-30T12:35:29.232Z,101515.25
2022-11-30T12:38:01.904Z,101516.66
2022-11-30T12:40:43.887Z,101518.34
2022-11-30T12:44:00.603Z,101524.75
2022-11-30T12:46:45.640Z,101516.84
2022-11-30T12:49:18.002Z,101527.13
2022-11-30T12:51:59.039Z,101522.31
2022-11-30T12:54:45.197Z,101523.88
2022-11-30T12:57:18.791Z,101527.50
2022-11-30T13:00:09.165Z,101533.00
2022-11-30T13:02:38.439Z,101523.22
2022-11-30T13:05:12.653Z,101535.59
2022-11-30T13:07:57.041Z,101544.22
2022-11-30T13:10:23.591Z,101535.63
2022-11-30T13:12:54.210Z,101538.16
2022-11-30T13:15:25.591Z,101544.13
2022-11-30T13:17:53.717Z,101543.59
2022-11-30T13:20:36.620Z,101538.81
2022-11-30T13:23:28.583Z,101542.94
2022-11-30T13:26:08.891Z,101537.06
2022-11-30T13:28:41.649Z,101540.69
2022-11-30T13:31:21.245Z,101541.56
2022-11-30T13:33:53.750Z,101540.69
2022-11-30T13:36:38.918Z,101538.63
2022-11-30T13:39:14.865Z,101539.84
2022-11-30T13:41:44.539Z,101535.72
2022-11-30T13:44:32.519Z,101535.88
2022-11-30T13:47:06.034Z,101538.81
2022-11-30T13:49:35.715Z,101540.19
2022-11-30T13:54:57.086Z,101535.00
2022-11-30T13:57:30.038Z,101539.81
2022-11-30T14:00:01.873Z,101544.88
2022-11-30T14:02:31.962Z,101543.13
2022-11-30T14:05:16.999Z,101547.09
2022-11-30T14:07:45.749Z,101544.84
2022-11-30T14:10:41.801Z,101543.25
2022-11-30T14:13:11.211Z,101545.38
2022-11-30T14:15:41.831Z,101548.88
2022-11-30T14:18:08.279Z,101557.47
2022-11-30T14:20:58.399Z,101551.69
2022-11-30T14:23:55.567Z,101555.63
2022-11-30T14:26:39.090Z,101558.50
2022-11-30T14:29:08.786Z,101568.81
2022-11-30T14:32:12.554Z,101556.06
2022-11-30T14:34:43.833Z,101567.03
2022-11-30T14:37:18.679Z,101567.75
2022-11-30T14:39:46.622Z,101566.47
2022-11-30T14:42:45.985Z,101569.22
2022-11-30T14:46:00.261Z,101558.81
2022-11-30T14:48:31.167Z,101566.50
2022-11-30T14:51:03.758Z,101575.75
2022-11-30T14:53:47.000Z,101568.09
2022-11-30T14:56:47.884Z,101562.81
2022-11-30T14:59:48.827Z,101574.75
2022-11-30T15:02:34.280Z,101568.41
2022-11-30T15:05:01.724Z,101567.22
2022-11-30T15:07:29.746Z,101566.50
2022-11-30T15:10:04.121Z,101569.16
2022-11-30T15:12:31.920Z,101567.88
2022-11-30T15:15:03.673Z,101564.06
2022-11-30T15:17:30.538Z,101574.06
2022-11-30T15:19:57.131Z,101558.91
2022-11-30T15:22:24.631Z,101565.50
2022-11-30T15:24:51.206Z,101567.78
2022-11-30T15:27:23.678Z,101577.72
2022-11-30T15:29:59.147Z,101579.72
2022-11-30T15:32:26.768Z,101586.75
2022-11-30T15:34:58.857Z,101581.59
2022-11-30T15:37:30.408Z,101594.16
2022-11-30T15:39:59.512Z,101591.91
2022-11-30T15:42:41.887Z,101597.03
2022-11-30T15:45:29.322Z,101603.22
2022-11-30T15:47:58.142Z,101599.13
2022-11-30T15:50:30.790Z,101601.91
2022-11-30T15:53:03.097Z,101605.06
2022-11-30T15:55:43.073Z,101607.69
2022-11-30T15:58:37.858Z,101607.31
2022-11-30T16:01:21.987Z,101611.09
2022-11-30T16:03:54.745Z,101610.44
2022-11-30T16:06:23.518Z,101611.25
2022-11-30T16:08:51.130Z,101611.25
2022-11-30T16:11:19.599Z,101609.31
2022-11-30T16:13:47.267Z,101608.63
2022-11-30T16:16:21.980Z,101617.00
2022-11-30T16:18:48.836Z,101609.91
2022-11-30T16:21:18.616Z,101615.72
2022-11-30T16:23:46.682Z,101619.31
2022-11-30T16:26:43.237Z,101617.91
2022-11-30T16:29:04.405Z,101615.56
2022-11-30T16:31:31.104Z,101625.75
2022-11-30T16:33:57.722Z,101621.84
2022-11-30T16:36:24.266Z,101619.19
2022-11-30T16:38:52.209Z,101623.28
2022-11-30T16:41:27.021Z,101616.94
2022-11-30T16:43:57.537Z,101622.09
2022-11-30T16:46:27.038Z,101617.13
2022-11-30T16:48:54.327Z,101620.22
2022-11-30T16:51:27.443Z,101630.91
2022-11-30T16:53:54.466Z,101635.19
2022-11-30T16:56:21.764Z,101639.63
2022-11-30T16:58:48.449Z,101637.59
2022-11-30T17:01:27.924Z,101636.28
2022-11-30T17:03:57.030Z,101643.50
2022-11-30T17:06:24.369Z,101638.94
2022-11-30T17:08:50.971Z,101632.31
2022-11-30T17:11:27.646Z,101637.50
2022-11-30T17:13:54.216Z,101644.63
2022-11-30T17:16:20.980Z,101646.75
2022-11-30T17:18:47.551Z,101651.22
2022-11-30T17:21:16.724Z,101650.59
2022-11-30T17:23:44.464Z,101648.47
2022-11-30T17:26:12.771Z,101645.28
2022-11-30T17:28:41.497Z,101650.66
2022-11-30T17:31:09.060Z,101655.53
2022-11-30T17:33:36.785Z,101663.44
2022-11-30T17:36:05.853Z,101658.50
2022-11-30T17:38:34.463Z,101657.16
2022-11-30T17:41:18.311Z,101660.53
2022-11-30T17:43:45.738Z,101669.16
2022-11-30T17:46:15.520Z,101662.88
2022-11-30T17:48:43.274Z,101670.63
2022-11-30T17:51:10.381Z,101663.81
2022-11-30T17:53:38.494Z,101666.47
2022-11-30T17:56:10.511Z,101673.00
2022-11-30T17:58:42.969Z,101674.72
2022-11-30T18:01:25.252Z,101678.50
2022-11-30T18:03:53.270Z,101685.63
2022-11-30T18:06:20.216Z,101688.06
2022-11-30T18:08:47.114Z,101687.97
2022-11-30T18:11:20.118Z,101693.13
2022-11-30T18:13:48.133Z,101689.00
2022-11-30T18:16:21.842Z,101697.63
2022-11-30T18:18:49.151Z,101694.19
2022-11-30T18:21:18.813Z,101695.28
2022-11-30T18:23:46.380Z,101701.53
2022-11-30T18:26:16.617Z,101694.66
2022-11-30T18:28:44.415Z,101690.50
2022-11-30T18:31:11.361Z,101690.00
2022-11-30T18:33:38.424Z,101691.94
2022-11-30T18:36:08.347Z,101692.81
2022-11-30T18:38:38.269Z,101697.31
2022-11-30T18:41:06.228Z,101698.03
2022-11-30T18:43:33.703Z,101692.22
2022-11-30T18:46:09.047Z,101702.78
2022-11-30T18:48:36.391Z,101700.28
2022-11-30T18:51:11.565Z,101704.03
2022-11-30T18:53:38.261Z,101705.63
2022-11-30T18:56:16.095Z,101712.03
2022-11-30T18:58:43.504Z,101705.75
2022-11-30T19:01:12.906Z,101710.81
2022-11-30T19:03:39.925Z,101712.47
2022-11-30T19:06:08.469Z,101702.78
2022-11-30T19:08:35.921Z,101704.44
2022-11-30T19:11:05.436Z,101702.03
2022-11-30T19:13:33.199Z,101697.41
2022-11-30T19:16:04.824Z,101719.91
2022-11-30T19:18:31.889Z,101712.31
2022-11-30T19:20:58.956Z,101712.13
2022-11-30T19:23:26.484Z,101714.41
2022-11-30T19:25:53.082Z,101719.09
2022-11-30T19:28:19.741Z,101713.56
2022-11-30T19:30:46.414Z,101721.88
2022-11-30T19:33:14.088Z,101722.66
2022-11-30T19:35:40.938Z,101724.66
2022-11-30T19:38:07.530Z,101719.66
2022-11-30T19:40:34.039Z,101736.94
2022-11-30T19:43:00.650Z,101734.16
2022-11-30T19:45:27.168Z,101730.16
2022-11-30T19:47:53.710Z,101734.47
2022-11-30T19:50:22.096Z,101740.91
2022-11-30T19:52:49.426Z,101727.28
2022-11-30T19:55:16.153Z,101738.47
2022-11-30T19:57:42.830Z,101737.78
2022-11-30T20:00:09.973Z,101733.72
2022-11-30T20:02:42.361Z,101738.88
2022-11-30T20:05:09.331Z,101741.88
2022-11-30T20:07:36.384Z,101744.69
2022-11-30T20:10:03.752Z,101744.06
2022-11-30T20:12:30.307Z,101741.31
2022-11-30T20:14:57.370Z,101738.25
2022-11-30T20:17:23.972Z,101742.66
2022-11-30T20:19:50.571Z,101749.31
2022-11-30T20:22:17.187Z,101753.16
2022-11-30T20:24:43.813Z,101753.22
2022-11-30T20:27:10.331Z,101755.66
2022-11-30T20:29:36.859Z,101755.03
2022-11-30T20:32:03.407Z,101755.81
2022-11-30T20:34:34.352Z,101758.16
2022-11-30T20:37:02.602Z,101754.63
2022-11-30T20:39:29.186Z,101751.16
2022-11-30T20:41:55.957Z,101756.84
2022-11-30T20:44:22.470Z,101758.97
2022-11-30T20:46:49.218Z,101751.97
2022-11-30T20:49:18.111Z,101753.38
2022-11-30T20:51:45.566Z,101751.41
2022-11-30T20:54:12.752Z,101744.22
2022-11-30T20:56:40.522Z,101751.75
2022-11-30T20:59:12.834Z,101746.81
2022-11-30T21:01:44.963Z,101751.28
2022-11-30T21:04:12.104Z,101749.31
2022-11-30T21:06:39.218Z,101750.00
2022-11-30T21:09:05.793Z,101742.81
2022-11-30T21:11:32.299Z,101745.16
2022-11-30T21:13:58.993Z,101751.81
2022-11-30T21:16:28.929Z,101756.53
2022-11-30T21:18:58.558Z,101754.72
2022-11-30T21:21:28.580Z,101751.78
2022-11-30T21:23:58.369Z,101749.59
2022-11-30T21:26:28.170Z,101741.59
2022-11-30T21:28:58.669Z,101752.91
2022-11-30T21:31:25.349Z,101745.00
2022-11-30T21:33:53.473Z,101748.22
2022-11-30T21:36:21.844Z,101751.50
2022-11-30T21:38:53.734Z,101750.19
2022-11-30T21:41:20.412Z,101756.59
2022-11-30T21:43:47.063Z,101752.69
2022-11-30T21:46:15.861Z,101766.34
2022-11-30T21:48:44.181Z,101754.34
2022-11-30T21:51:31.501Z,101753.38
2022-11-30T21:54:01.030Z,101756.66
2022-11-30T21:56:30.973Z,101758.47
2022-11-30T21:58:58.129Z,101761.06
2022-11-30T22:01:34.105Z,101756.13
2022-11-30T22:04:03.216Z,101752.38
2022-11-30T22:06:31.544Z,101751.59
2022-11-30T22:09:03.246Z,101755.81
2022-11-30T22:11:30.771Z,101757.38
2022-11-30T22:13:57.310Z,101751.47
2022-11-30T22:16:25.855Z,101755.97
2022-11-30T22:18:55.680Z,101749.59
2022-11-30T22:21:24.364Z,101755.66
2022-11-30T22:24:01.948Z,101750.88
2022-11-30T22:26:31.194Z,101752.22
2022-11-30T22:29:03.487Z,101749.81
2022-11-30T22:31:34.000Z,101750.00
2022-11-30T22:34:00.854Z,101752.00
2022-11-30T22:36:29.873Z,101749.53
2022-11-30T22:39:05.409Z,101750.13
2022-11-30T22:41:32.655Z,101747.13
2022-11-30T22:43:59.593Z,101758.41
2022-11-30T22:46:29.021Z,101753.78
2022-11-30T22:48:58.833Z,101754.78
2022-11-30T22:51:27.662Z,101751.03
2022-11-30T22:53:55.010Z,101759.09
2022-11-30T22:56:23.710Z,101756.66
2022-11-30T22:58:53.909Z,101753.97
2022-11-30T23:01:30.164Z,101748.16
2022-11-30T23:04:01.931Z,101758.59
2022-11-30T23:06:28.898Z,101746.13
2022-11-30T23:08:55.437Z,101754.06
2022-11-30T23:11:25.065Z,101758.78
2022-11-30T23:13:52.744Z,101755.63
2022-11-30T23:16:20.393Z,101769.28
2022-11-30T23:18:48.428Z,101757.81
2022-11-30T23:21:20.577Z,101753.41
2022-11-30T23:23:47.993Z,101756.56
2022-11-30T23:26:24.219Z,101749.03
2022-11-30T23:28:52.729Z,101748.66
2022-11-30T23:31:33.763Z,101758.63
2022-11-30T23:34:04.256Z,101763.97
2022-11-30T23:36:30.882Z,101765.50
2022-11-30T23:38:59.677Z,101768.66
2022-11-30T23:41:26.692Z,101755.66
2022-11-30T23:43:53.860Z,101759.75
2022-11-30T23:46:20.889Z,101764.75
2022-11-30T23:48:47.892Z,101754.53
2022-11-30T23:51:14.411Z,101755.66
2022-11-30T23:53:40.943Z,101757.03
2022-11-30T23:56:11.792Z,101757.69
2022-11-30T23:58:39.527Z,101753.13
